This is the latest recevied weather packets stored in our database for station/object DL5MAC-13. If no packets are shown the sender has not sent any weather packets the latest 1 day(s).
| Time | Temp. | Humidity | Pressure | Rain* | Wind** | Luminosity | Snow |
|---|---|---|---|---|---|---|---|
| 1778080861 | 13.89° C | 74% | 1008.6 hPa | 0.25 mm | - | 8 W/m² | - |
| 1778079630 | 18.89° C | 58% | 1007.1 hPa | 0 mm | - | 9 W/m² | - |
| 1778078437 | 20° C | 54% | 1006.4 hPa | 0 mm | - | 21 W/m² | - |
| 1778077869 | 20° C | 52% | 1006.4 hPa | 0 mm | - | 41 W/m² | - |
| 1778076653 | 20° C | 52% | 1006.7 hPa | 0 mm | - | 77 W/m² | - |
| 1778074829 | 20.56° C | 52% | 1006.9 hPa | 0 mm | - | 111 W/m² | - |
| 1778073054 | 20.56° C | 52% | 1007.3 hPa | 0 mm | - | 158 W/m² | - |
| 1778071843 | 21.11° C | 52% | 1007.4 hPa | 0 mm | - | 167 W/m² | - |
| 1778071230 | 20° C | 53% | 1007.6 hPa | 0 mm | - | 206 W/m² | - |
| 1778069470 | 20.56° C | 54% | 1007.9 hPa | 0 mm | - | 181 W/m² | - |
| 1778065839 | 19.44° C | 55% | 1008.9 hPa | 0 mm | - | 153 W/m² | - |
| 1778065278 | 20° C | 55% | 1008.9 hPa | 0 mm | - | 217 W/m² | - |
| 1778063435 | 21.11° C | 50% | 1009.1 hPa | 0 mm | - | 460 W/m² | - |
| 1778062861 | 20.56° C | 52% | 1009.4 hPa | 0 mm | - | 445 W/m² | - |
| 1778061070 | 20° C | 53% | 1009.3 hPa | 0 mm | - | 491 W/m² | - |
| 1778059278 | 17.78° C | 60% | 1009.4 hPa | 0 mm | - | 273 W/m² | - |
| 1778058638 | 18.33° C | 61% | 1009.4 hPa | 0 mm | - | 274 W/m² | - |
| 1778058063 | 19.44° C | 59% | 1009.5 hPa | 0 mm | - | 297 W/m² | - |
| 1778057422 | 18.89° C | 58% | 1009.5 hPa | 0 mm | - | 335 W/m² | - |
| 1778056845 | 18.89° C | 57% | 1009.7 hPa | 0 mm | - | 218 W/m² | - |
| 1778056235 | 19.44° C | 58% | 1009.8 hPa | 0 mm | - | 470 W/m² | - |
| 1778055022 | 20° C | 57% | 1009.6 hPa | 0 mm | - | 509 W/m² | - |
| 1778054446 | 19.44° C | 60% | 1009.6 hPa | 0 mm | - | 482 W/m² | - |
| 1778053872 | 17.78° C | 61% | 1009.8 hPa | 0 mm | - | 392 W/m² | - |
| 1778053230 | 17.78° C | 63% | 1010 hPa | 0 mm | - | 336 W/m² | - |
* Rain latest hour (hover to see other rain measurements)
** Current wind speed in m/s (hover to see current wind gust speed)